createdAt,value
2022-09-02T00:05:57.735Z,100855.14
2022-09-02T00:12:22.065Z,100855.22
2022-09-02T00:18:47.040Z,100853.77
2022-09-02T00:25:10.109Z,100854.42
2022-09-02T00:31:37.566Z,100860.06
2022-09-02T00:38:03.940Z,100861.51
2022-09-02T00:44:29.364Z,100859.06
2022-09-02T00:50:46.756Z,100860.09
2022-09-02T00:57:12.127Z,100850.98
2022-09-02T01:03:43.324Z,100856.67
2022-09-02T01:10:07.652Z,100856.82
2022-09-02T01:16:32.043Z,100856.77
2022-09-02T01:22:58.896Z,100857.22
2022-09-02T01:29:23.054Z,100860.19
2022-09-02T01:35:50.463Z,100860.09
2022-09-02T01:42:22.755Z,100861.74
2022-09-02T01:48:46.897Z,100864.34
2022-09-02T01:55:12.014Z,100865.61
2022-09-02T02:01:38.453Z,100860.73
2022-09-02T02:08:03.789Z,100851.13
2022-09-02T02:14:30.257Z,100851.71
2022-09-02T02:20:56.313Z,100852.95
2022-09-02T02:27:11.384Z,100853.52
2022-09-02T02:33:44.012Z,100855.41
2022-09-02T02:40:09.431Z,100851.54
2022-09-02T02:46:33.791Z,100851.81
2022-09-02T02:53:00.428Z,100852.46
2022-09-02T02:59:24.673Z,100850.83
2022-09-02T03:05:46.215Z,100846.23
2022-09-02T03:12:11.720Z,100847.67
2022-09-02T03:18:36.928Z,100846.95
2022-09-02T03:25:02.377Z,100842.26
2022-09-02T03:31:28.021Z,100836.17
2022-09-02T03:37:52.822Z,100835.52
2022-09-02T03:44:17.963Z,100839.08
2022-09-02T03:50:45.296Z,100840.27
2022-09-02T03:57:09.627Z,100847.02
2022-09-02T04:03:34.997Z,100852.90
2022-09-02T04:10:00.433Z,100847.08
2022-09-02T04:16:27.900Z,100849.37
2022-09-02T04:22:44.944Z,100853.96
2022-09-02T04:29:09.965Z,100859.02
2022-09-02T04:35:17.956Z,100857.95
2022-09-02T04:41:41.992Z,100854.66
2022-09-02T04:48:06.681Z,100854.95
2022-09-02T04:54:32.021Z,100853.55
2022-09-02T05:00:57.683Z,100853.09
2022-09-02T05:07:23.806Z,100858.15
2022-09-02T05:13:27.660Z,100862.09
2022-09-02T05:19:53.746Z,100869.15
2022-09-02T05:26:18.010Z,100860.35
2022-09-02T05:32:43.393Z,100858.41
2022-09-02T05:38:59.183Z,100854.53
2022-09-02T05:45:24.515Z,100852.65
2022-09-02T05:51:49.928Z,100851.88
2022-09-02T05:58:14.236Z,100851.94
2022-09-02T06:04:31.769Z,100858.09
2022-09-02T06:10:59.920Z,100860.37
2022-09-02T06:17:25.427Z,100859.35
2022-09-02T06:23:48.643Z,100853.09
2022-09-02T06:29:54.751Z,100857.63
2022-09-02T06:35:59.180Z,100852.27
2022-09-02T06:41:48.826Z,100849.36
2022-09-02T06:48:13.207Z,100854.52
2022-09-02T06:54:39.984Z,100853.13
2022-09-02T07:00:54.309Z,100856.84
2022-09-02T07:07:25.732Z,100859.62
2022-09-02T07:13:51.052Z,100860.76
2022-09-02T07:20:16.491Z,100864.82
2022-09-02T07:26:44.380Z,100871.13
2022-09-02T07:33:02.363Z,100868.48
2022-09-02T07:39:22.576Z,100866.13
2022-09-02T07:45:47.025Z,100868.35
2022-09-02T07:51:53.698Z,100872.45
2022-09-02T07:58:20.755Z,100863.33
2022-09-02T08:04:46.508Z,100866.17
2022-09-02T08:11:11.199Z,100867.24
2022-09-02T08:17:34.316Z,100861.19
2022-09-02T08:23:40.300Z,100853.33
2022-09-02T08:30:10.966Z,100858.33
2022-09-02T08:36:36.281Z,100854.55
2022-09-02T08:43:16.156Z,100861.42
2022-09-02T08:49:50.306Z,100860.90
2022-09-02T08:56:28.588Z,100856.53
2022-09-02T09:02:59.894Z,100851.02
2022-09-02T09:09:51.590Z,100838.88
2022-09-02T09:16:30.245Z,100844.64
2022-09-02T09:22:54.381Z,100834.08
2022-09-02T09:29:11.449Z,100828.89
2022-09-02T09:35:50.174Z,100827.10
2022-09-02T09:42:04.602Z,100831.21
2022-09-02T09:48:28.924Z,100822.56
2022-09-02T09:54:56.120Z,100816.30
2022-09-02T10:01:20.533Z,100814.49
2022-09-02T10:07:45.328Z,100812.20
2022-09-02T10:14:26.547Z,100804.36
2022-09-02T10:21:16.642Z,100798.14
2022-09-02T10:27:48.977Z,100795.42
2022-09-02T10:34:19.264Z,100795.42
2022-09-02T10:40:58.737Z,100793.69
2022-09-02T10:47:29.404Z,100785.99
2022-09-02T10:53:48.026Z,100778.52
2022-09-02T11:00:08.972Z,100777.40
2022-09-02T11:06:26.213Z,100780.31
2022-09-02T11:12:36.959Z,100776.23
2022-09-02T11:18:36.970Z,100772.55
2022-09-02T11:24:27.703Z,100757.82
2022-09-02T11:30:32.344Z,100750.16
2022-09-02T11:36:47.145Z,100753.20
2022-09-02T11:43:03.029Z,100750.70
2022-09-02T11:49:29.075Z,100751.20
2022-09-02T11:56:02.792Z,100743.61
2022-09-02T12:02:32.983Z,100742.28
2022-09-02T12:09:03.198Z,100740.17
2022-09-02T12:15:27.880Z,100737.63
2022-09-02T12:22:01.480Z,100727.33
2022-09-02T12:28:23.889Z,100722.98
2022-09-02T12:35:02.232Z,100721.35
2022-09-02T12:41:30.520Z,100710.84
2022-09-02T12:47:54.804Z,100702.41
2022-09-02T12:54:24.978Z,100704.55
2022-09-02T13:00:49.553Z,100702.02
2022-09-02T13:07:33.294Z,100704.48
2022-09-02T13:13:46.750Z,100697.64
2022-09-02T13:20:29.847Z,100685.33
2022-09-02T13:27:13.900Z,100677.08
2022-09-02T13:33:47.808Z,100668.89
2022-09-02T13:40:24.874Z,100669.75
2022-09-02T13:46:53.461Z,100669.36
2022-09-02T13:53:53.762Z,100658.02
2022-09-02T14:00:28.974Z,100654.14
2022-09-02T14:06:45.583Z,100651.76
2022-09-02T14:13:05.359Z,100650.93
2022-09-02T14:19:49.173Z,100652.20
2022-09-02T14:26:17.822Z,100652.49
2022-09-02T14:32:56.369Z,100647.85
2022-09-02T14:39:22.271Z,100646.79
2022-09-02T14:45:31.467Z,100646.75
2022-09-02T14:51:59.190Z,100643.34
2022-09-02T14:58:32.303Z,100644.48
2022-09-02T15:04:58.528Z,100649.86
2022-09-02T15:11:30.621Z,100645.81
2022-09-02T15:17:53.816Z,100642.81
2022-09-02T15:24:21.131Z,100639.09
2022-09-02T15:30:41.108Z,100634.42
2022-09-02T15:37:14.123Z,100636.61
2022-09-02T15:43:44.122Z,100633.20
2022-09-02T15:50:10.787Z,100637.23
2022-09-02T15:56:38.733Z,100634.81
2022-09-02T16:03:04.002Z,100631.77
2022-09-02T16:09:32.990Z,100639.43
2022-09-02T16:15:49.161Z,100637.71
2022-09-02T16:22:15.214Z,100633.50
2022-09-02T16:28:28.747Z,100631.05
2022-09-02T16:34:56.406Z,100623.91
2022-09-02T16:41:00.608Z,100619.52
2022-09-02T16:47:06.581Z,100615.69
2022-09-02T16:53:31.546Z,100613.63
2022-09-02T16:59:48.330Z,100613.04
2022-09-02T17:05:53.927Z,100616.07
2022-09-02T17:12:09.746Z,100617.28
2022-09-02T17:18:19.080Z,100618.31
2022-09-02T17:24:43.509Z,100618.33
2022-09-02T17:31:08.073Z,100617.11
2022-09-02T17:37:43.713Z,100615.14
2022-09-02T17:44:09.442Z,100613.93
2022-09-02T17:50:36.946Z,100614.01
2022-09-02T17:56:59.855Z,100612.88
2022-09-02T18:03:23.877Z,100618.88
2022-09-02T18:09:36.815Z,100621.75
2022-09-02T18:16:03.678Z,100619.48
2022-09-02T18:22:36.135Z,100622.05
2022-09-02T18:29:21.520Z,100618.68
2022-09-02T18:36:09.676Z,100627.68
2022-09-02T18:42:48.822Z,100630.08
2022-09-02T18:49:18.731Z,100631.13
2022-09-02T18:56:01.626Z,100635.07
2022-09-02T19:02:31.017Z,100641.05
2022-09-02T19:09:01.051Z,100639.27
2022-09-02T19:15:36.828Z,100643.89
2022-09-02T19:22:04.728Z,100651.77
2022-09-02T19:28:30.784Z,100654.08
2022-09-02T19:34:44.246Z,100651.66
2022-09-02T19:41:09.744Z,100650.16
2022-09-02T19:54:30.423Z,100659.21
2022-09-02T20:00:56.371Z,100659.04
2022-09-02T20:07:23.651Z,100654.86
2022-09-02T20:13:50.113Z,100660.31
2022-09-02T20:20:28.307Z,100658.77
2022-09-02T20:26:54.829Z,100657.06
2022-09-02T20:33:33.452Z,100651.54
2022-09-02T20:40:05.086Z,100649.81
2022-09-02T20:46:46.540Z,100656.64
2022-09-02T20:53:10.891Z,100657.27
2022-09-02T20:59:51.514Z,100659.31
2022-09-02T21:06:22.791Z,100649.14
2022-09-02T21:13:18.696Z,100647.25
2022-09-02T21:20:01.734Z,100650.81
2022-09-02T21:26:28.932Z,100658.15
2022-09-02T21:33:12.135Z,100656.98
2022-09-02T21:39:28.099Z,100656.66
2022-09-02T21:46:05.732Z,100645.59
2022-09-02T21:52:38.773Z,100646.06
2022-09-02T21:59:13.661Z,100639.47
2022-09-02T22:12:22.490Z,100644.24
2022-09-02T22:18:54.212Z,100644.06
2022-09-02T22:25:21.641Z,100643.55
2022-09-02T22:31:53.805Z,100642.83
2022-09-02T22:38:38.869Z,100644.89
2022-09-02T22:45:29.573Z,100649.57
2022-09-02T22:52:11.475Z,100652.80
2022-09-02T22:58:51.133Z,100653.85
2022-09-02T23:05:18.636Z,100654.64
2022-09-02T23:11:44.807Z,100653.00
2022-09-02T23:18:21.427Z,100652.40
2022-09-02T23:25:02.341Z,100649.14
2022-09-02T23:31:38.432Z,100645.04
2022-09-02T23:38:07.306Z,100643.43
2022-09-02T23:44:43.288Z,100637.91
2022-09-02T23:51:13.548Z,100629.00
2022-09-02T23:58:00.392Z,100628.04
